sensor_id;sensor_type;location;lat;lon;timestamp;temperature;humidity
70037;DHT22;57239;51.984;5.748;2023-05-15T00:00:23;22.5;63
70037;DHT22;57239;51.984;5.748;2023-05-15T00:01:49;22.5;62
70037;DHT22;57239;51.984;5.748;2023-05-15T00:02:20;22.5;62
70037;DHT22;57239;51.984;5.748;2023-05-15T00:02:50;22.5;62
70037;DHT22;57239;51.984;5.748;2023-05-15T00:03:20;22.5;62
70037;DHT22;57239;51.984;5.748;2023-05-15T00:03:50;22.5;62
70037;DHT22;57239;51.984;5.748;2023-05-15T00:04:21;22.5;62
70037;DHT22;57239;51.984;5.748;2023-05-15T00:04:51;22.5;62
70037;DHT22;57239;51.984;5.748;2023-05-15T00:05:21;22.5;62
70037;DHT22;57239;51.984;5.748;2023-05-15T00:05:52;22.5;62
70037;DHT22;57239;51.984;5.748;2023-05-15T00:06:22;22.5;62
70037;DHT22;57239;51.984;5.748;2023-05-15T00:06:52;22.5;62
70037;DHT22;57239;51.984;5.748;2023-05-15T00:07:22;22.4;62
70037;DHT22;57239;51.984;5.748;2023-05-15T00:07:53;22.4;62
70037;DHT22;57239;51.984;5.748;2023-05-15T00:08:23;22.5;62
70037;DHT22;57239;51.984;5.748;2023-05-15T00:08:53;22.5;62
70037;DHT22;57239;51.984;5.748;2023-05-15T00:09:23;22.5;62
70037;DHT22;57239;51.984;5.748;2023-05-15T00:09:54;22.5;63
70037;DHT22;57239;51.984;5.748;2023-05-15T00:10:24;22.5;63
70037;DHT22;57239;51.984;5.748;2023-05-15T00:10:54;22.5;63
70037;DHT22;57239;51.984;5.748;2023-05-15T00:11:24;22.5;63
70037;DHT22;57239;51.984;5.748;2023-05-15T00:11:55;22.5;63
70037;DHT22;57239;51.984;5.748;2023-05-15T00:12:25;22.5;62
70037;DHT22;57239;51.984;5.748;2023-05-15T00:12:56;22.5;62
70037;DHT22;57239;51.984;5.748;2023-05-15T00:13:26;22.5;62
70037;DHT22;57239;51.984;5.748;2023-05-15T00:14:17;22.5;62
70037;DHT22;57239;51.984;5.748;2023-05-15T00:14:48;22.5;62
70037;DHT22;57239;51.984;5.748;2023-05-15T00:16:03;22.5;62
70037;DHT22;57239;51.984;5.748;2023-05-15T00:16:34;22.5;62
70037;DHT22;57239;51.984;5.748;2023-05-15T00:17:05;22.5;62
70037;DHT22;57239;51.984;5.748;2023-05-15T00:17:35;22.5;62
70037;DHT22;57239;51.984;5.748;2023-05-15T00:18:05;22.5;62
70037;DHT22;57239;51.984;5.748;2023-05-15T00:18:35;22.5;62
70037;DHT22;57239;51.984;5.748;2023-05-15T00:19:06;22.5;62
70037;DHT22;57239;51.984;5.748;2023-05-15T00:19:36;22.5;62
70037;DHT22;57239;51.984;5.748;2023-05-15T00:20:06;22.5;62
70037;DHT22;57239;51.984;5.748;2023-05-15T00:20:37;22.5;62
70037;DHT22;57239;51.984;5.748;2023-05-15T00:21:40;22.5;62
70037;DHT22;57239;51.984;5.748;2023-05-15T00:22:11;22.4;62
70037;DHT22;57239;51.984;5.748;2023-05-15T00:22:41;22.4;62
70037;DHT22;57239;51.984;5.748;2023-05-15T00:23:11;22.4;62
70037;DHT22;57239;51.984;5.748;2023-05-15T00:23:41;22.4;62
70037;DHT22;57239;51.984;5.748;2023-05-15T00:24:12;22.4;62
70037;DHT22;57239;51.984;5.748;2023-05-15T00:24:42;22.4;62
70037;DHT22;57239;51.984;5.748;2023-05-15T00:25:12;22.4;62
70037;DHT22;57239;51.984;5.748;2023-05-15T00:25:42;22.4;62
70037;DHT22;57239;51.984;5.748;2023-05-15T00:26:13;22.4;62
70037;DHT22;57239;51.984;5.748;2023-05-15T00:27:15;22.5;62
70037;DHT22;57239;51.984;5.748;2023-05-15T00:27:45;22.5;62
70037;DHT22;57239;51.984;5.748;2023-05-15T00:28:16;22.5;62
70037;DHT22;57239;51.984;5.748;2023-05-15T00:28:46;22.3;62
70037;DHT22;57239;51.984;5.748;2023-05-15T00:29:16;22.3;62
70037;DHT22;57239;51.984;5.748;2023-05-15T00:29:46;22.3;62
70037;DHT22;57239;51.984;5.748;2023-05-15T00:30:17;22.3;62
70037;DHT22;57239;51.984;5.748;2023-05-15T00:30:47;22.5;62
70037;DHT22;57239;51.984;5.748;2023-05-15T00:31:17;22.4;62
70037;DHT22;57239;51.984;5.748;2023-05-15T00:31:47;22.4;62
70037;DHT22;57239;51.984;5.748;2023-05-15T00:32:18;22.4;62
70037;DHT22;57239;51.984;5.748;2023-05-15T00:32:48;22.4;62
70037;DHT22;57239;51.984;5.748;2023-05-15T00:33:18;22.4;62
70037;DHT22;57239;51.984;5.748;2023-05-15T00:33:48;22.5;62
70037;DHT22;57239;51.984;5.748;2023-05-15T00:34:20;22.5;62
70037;DHT22;57239;51.984;5.748;2023-05-15T00:34:50;22.5;62
70037;DHT22;57239;51.984;5.748;2023-05-15T00:35:20;22.4;62
70037;DHT22;57239;51.984;5.748;2023-05-15T00:35:51;22.4;62
70037;DHT22;57239;51.984;5.748;2023-05-15T00:36:21;22.4;62
70037;DHT22;57239;51.984;5.748;2023-05-15T00:36:51;22.4;62
70037;DHT22;57239;51.984;5.748;2023-05-15T00:37:22;22.5;74
70037;DHT22;57239;51.984;5.748;2023-05-15T00:37:52;22.5;74
70037;DHT22;57239;51.984;5.748;2023-05-15T00:38:22;22.4;62
70037;DHT22;57239;51.984;5.748;2023-05-15T00:38:53;22.4;62
70037;DHT22;57239;51.984;5.748;2023-05-15T00:39:23;22.4;62
70037;DHT22;57239;51.984;5.748;2023-05-15T00:39:53;22.5;61
70037;DHT22;57239;51.984;5.748;2023-05-15T00:40:23;unavailable;unavailable
70037;DHT22;57239;51.984;5.748;2023-05-15T00:40:55;unavailable;unavailable
70037;DHT22;57239;51.984;5.748;2023-05-15T00:41:25;unavailable;unavailable
70037;DHT22;57239;51.984;5.748;2023-05-15T00:41:57;unavailable;unavailable
70037;DHT22;57239;51.984;5.748;2023-05-15T00:42:28;unavailable;unavailable
70037;DHT22;57239;51.984;5.748;2023-05-15T00:45:20;22.4;62
70037;DHT22;57239;51.984;5.748;2023-05-15T00:48:29;unavailable;unavailable
70037;DHT22;57239;51.984;5.748;2023-05-15T01:02:07;22.3;69
70037;DHT22;57239;51.984;5.748;2023-05-15T01:02:37;22.3;69
70037;DHT22;57239;51.984;5.748;2023-05-15T01:03:08;22.3;69
70037;DHT22;57239;51.984;5.748;2023-05-15T01:04:32;22.3;61
70037;DHT22;57239;51.984;5.748;2023-05-15T01:05:03;22.3;61
70037;DHT22;57239;51.984;5.748;2023-05-15T01:05:50;22.3;62
70037;DHT22;57239;51.984;5.748;2023-05-15T01:06:20;22.3;62
70037;DHT22;57239;51.984;5.748;2023-05-15T01:07:31;22.3;61
70037;DHT22;57239;51.984;5.748;2023-05-15T01:08:05;22.3;61
70037;DHT22;57239;51.984;5.748;2023-05-15T01:09:07;22.3;61
70037;DHT22;57239;51.984;5.748;2023-05-15T01:09:39;22.4;61
70037;DHT22;57239;51.984;5.748;2023-05-15T01:10:11;22.4;61
70037;DHT22;57239;51.984;5.748;2023-05-15T01:10:42;22.4;61
70037;DHT22;57239;51.984;5.748;2023-05-15T01:11:13;22.4;61
70037;DHT22;57239;51.984;5.748;2023-05-15T01:11:44;22.3;61
70037;DHT22;57239;51.984;5.748;2023-05-15T01:12:16;22.3;61
70037;DHT22;57239;51.984;5.748;2023-05-15T01:12:48;22.3;61
70037;DHT22;57239;51.984;5.748;2023-05-15T01:13:45;22.3;62
70037;DHT22;57239;51.984;5.748;2023-05-15T01:14:16;22.3;62
70037;DHT22;57239;51.984;5.748;2023-05-15T01:15:48;22.3;62
70037;DHT22;57239;51.984;5.748;2023-05-15T01:16:19;22.3;61
70037;DHT22;57239;51.984;5.748;2023-05-15T01:16:50;22.3;61
70037;DHT22;57239;51.984;5.748;2023-05-15T01:17:20;22.3;61
70037;DHT22;57239;51.984;5.748;2023-05-15T01:17:51;22.3;61
70037;DHT22;57239;51.984;5.748;2023-05-15T01:18:21;22.3;61
70037;DHT22;57239;51.984;5.748;2023-05-15T01:18:51;22.3;61
70037;DHT22;57239;51.984;5.748;2023-05-15T01:19:21;22.3;62
70037;DHT22;57239;51.984;5.748;2023-05-15T01:21:08;22.3;62
70037;DHT22;57239;51.984;5.748;2023-05-15T01:22:40;22.3;61
70037;DHT22;57239;51.984;5.748;2023-05-15T01:23:18;22.3;61
70037;DHT22;57239;51.984;5.748;2023-05-15T01:24:03;unavailable;unavailable
70037;DHT22;57239;51.984;5.748;2023-05-15T01:24:59;unavailable;unavailable
70037;DHT22;57239;51.984;5.748;2023-05-15T01:25:44;unavailable;unavailable
70037;DHT22;57239;51.984;5.748;2023-05-15T01:26:31;unavailable;unavailable
70037;DHT22;57239;51.984;5.748;2023-05-15T01:28:54;22.4;61
70037;DHT22;57239;51.984;5.748;2023-05-15T01:30:25;22.3;62
70037;DHT22;57239;51.984;5.748;2023-05-15T01:30:59;22.3;62
70037;DHT22;57239;51.984;5.748;2023-05-15T01:32:52;22.3;62
70037;DHT22;57239;51.984;5.748;2023-05-15T01:33:27;22.3;61
70037;DHT22;57239;51.984;5.748;2023-05-15T01:34:01;22.3;61
70037;DHT22;57239;51.984;5.748;2023-05-15T01:34:35;22.3;61
70037;DHT22;57239;51.984;5.748;2023-05-15T01:35:13;22.3;61
70037;DHT22;57239;51.984;5.748;2023-05-15T01:35:56;22.3;61
70037;DHT22;57239;51.984;5.748;2023-05-15T01:36:32;22.2;61
70037;DHT22;57239;51.984;5.748;2023-05-15T01:37:07;22.2;61
70037;DHT22;57239;51.984;5.748;2023-05-15T01:37:43;22.2;61
70037;DHT22;57239;51.984;5.748;2023-05-15T01:38:16;22.2;61
70037;DHT22;57239;51.984;5.748;2023-05-15T01:38:51;22.2;61
70037;DHT22;57239;51.984;5.748;2023-05-15T01:39:23;22.3;61
70037;DHT22;57239;51.984;5.748;2023-05-15T01:39:59;22.3;61
70037;DHT22;57239;51.984;5.748;2023-05-15T01:40:31;22.3;61
70037;DHT22;57239;51.984;5.748;2023-05-15T01:41:04;22.3;61
70037;DHT22;57239;51.984;5.748;2023-05-15T01:41:40;22.3;61
70037;DHT22;57239;51.984;5.748;2023-05-15T01:42:14;22.3;61
70037;DHT22;57239;51.984;5.748;2023-05-15T01:42:49;22.3;61
70037;DHT22;57239;51.984;5.748;2023-05-15T01:43:23;22.2;61
70037;DHT22;57239;51.984;5.748;2023-05-15T01:43:58;22.2;61
70037;DHT22;57239;51.984;5.748;2023-05-15T01:44:35;22.2;61
70037;DHT22;57239;51.984;5.748;2023-05-15T01:45:07;22.2;71
70037;DHT22;57239;51.984;5.748;2023-05-15T01:45:40;22.2;71
70037;DHT22;57239;51.984;5.748;2023-05-15T01:46:12;22.2;71
70037;DHT22;57239;51.984;5.748;2023-05-15T01:46:48;22.2;71
70037;DHT22;57239;51.984;5.748;2023-05-15T01:47:22;22.2;61
70037;DHT22;57239;51.984;5.748;2023-05-15T01:48:22;22.2;61
70037;DHT22;57239;51.984;5.748;2023-05-15T01:48:54;22.2;61
70037;DHT22;57239;51.984;5.748;2023-05-15T01:50:40;22.3;61
70037;DHT22;57239;51.984;5.748;2023-05-15T01:51:14;22.3;61
70037;DHT22;57239;51.984;5.748;2023-05-15T01:51:47;22.3;61
70037;DHT22;57239;51.984;5.748;2023-05-15T01:52:23;22.3;61
70037;DHT22;57239;51.984;5.748;2023-05-15T01:53:12;22.3;61
70037;DHT22;57239;51.984;5.748;2023-05-15T01:53:44;22.3;61
70037;DHT22;57239;51.984;5.748;2023-05-15T01:54:15;22.3;61
70037;DHT22;57239;51.984;5.748;2023-05-15T01:54:47;22.2;61
70037;DHT22;57239;51.984;5.748;2023-05-15T01:55:19;22.2;61
70037;DHT22;57239;51.984;5.748;2023-05-15T01:55:51;22.2;61
70037;DHT22;57239;51.984;5.748;2023-05-15T01:56:22;22.2;61
70037;DHT22;57239;51.984;5.748;2023-05-15T01:56:53;22.2;61
70037;DHT22;57239;51.984;5.748;2023-05-15T01:57:26;22.3;61
70037;DHT22;57239;51.984;5.748;2023-05-15T01:57:58;22.3;61
70037;DHT22;57239;51.984;5.748;2023-05-15T01:58:30;22.3;61
70037;DHT22;57239;51.984;5.748;2023-05-15T01:59:01;22.3;61
70037;DHT22;57239;51.984;5.748;2023-05-15T02:00:24;22.3;61
70037;DHT22;57239;51.984;5.748;2023-05-15T02:00:55;22.3;61
70037;DHT22;57239;51.984;5.748;2023-05-15T02:01:55;22.3;61
70037;DHT22;57239;51.984;5.748;2023-05-15T02:02:27;22.2;61
70037;DHT22;57239;51.984;5.748;2023-05-15T02:02:58;22.2;61
70037;DHT22;57239;51.984;5.748;2023-05-15T02:03:29;22.3;60
70037;DHT22;57239;51.984;5.748;2023-05-15T02:04:01;22.3;60
70037;DHT22;57239;51.984;5.748;2023-05-15T02:04:32;22.3;60
70037;DHT22;57239;51.984;5.748;2023-05-15T02:05:18;22.3;61
70037;DHT22;57239;51.984;5.748;2023-05-15T02:05:49;unavailable;unavailable
70037;DHT22;57239;51.984;5.748;2023-05-15T02:06:20;22.3;60
70037;DHT22;57239;51.984;5.748;2023-05-15T02:06:52;22.3;60
70037;DHT22;57239;51.984;5.748;2023-05-15T02:07:22;22.3;60
70037;DHT22;57239;51.984;5.748;2023-05-15T02:07:53;22.3;60
70037;DHT22;57239;51.984;5.748;2023-05-15T02:08:24;22.3;60
70037;DHT22;57239;51.984;5.748;2023-05-15T02:08:56;22.3;60
70037;DHT22;57239;51.984;5.748;2023-05-15T02:10:51;22.4;60
70037;DHT22;57239;51.984;5.748;2023-05-15T02:11:22;22.4;60
70037;DHT22;57239;51.984;5.748;2023-05-15T02:13:08;22.4;60
70037;DHT22;57239;51.984;5.748;2023-05-15T02:13:39;22.4;60
70037;DHT22;57239;51.984;5.748;2023-05-15T02:14:28;22.3;60
70037;DHT22;57239;51.984;5.748;2023-05-15T02:15:00;22.3;60
70037;DHT22;57239;51.984;5.748;2023-05-15T02:15:32;22.3;60
70037;DHT22;57239;51.984;5.748;2023-05-15T02:16:03;22.3;60
70037;DHT22;57239;51.984;5.748;2023-05-15T02:16:34;22.3;60
70037;DHT22;57239;51.984;5.748;2023-05-15T02:17:04;22.4;60
70037;DHT22;57239;51.984;5.748;2023-05-15T02:17:34;22.4;60
70037;DHT22;57239;51.984;5.748;2023-05-15T02:18:05;22.4;60
70037;DHT22;57239;51.984;5.748;2023-05-15T02:19:33;22.4;61
70037;DHT22;57239;51.984;5.748;2023-05-15T02:20:04;22.4;61
70037;DHT22;57239;51.984;5.748;2023-05-15T02:21:58;22.4;60
70037;DHT22;57239;51.984;5.748;2023-05-15T02:22:28;22.4;60
70037;DHT22;57239;51.984;5.748;2023-05-15T02:24:23;22.4;60
70037;DHT22;57239;51.984;5.748;2023-05-15T02:24:53;22.3;60
70037;DHT22;57239;51.984;5.748;2023-05-15T02:25:25;22.3;60
70037;DHT22;57239;51.984;5.748;2023-05-15T02:26:09;22.3;61
70037;DHT22;57239;51.984;5.748;2023-05-15T02:26:47;22.3;61
70037;DHT22;57239;51.984;5.748;2023-05-15T02:27:26;22.3;60
70037;DHT22;57239;51.984;5.748;2023-05-15T02:28:07;22.3;60
70037;DHT22;57239;51.984;5.748;2023-05-15T02:28:46;22.3;60
70037;DHT22;57239;51.984;5.748;2023-05-15T02:29:25;22.3;60
70037;DHT22;57239;51.984;5.748;2023-05-15T02:30:07;22.3;60
70037;DHT22;57239;51.984;5.748;2023-05-15T02:30:48;22.2;61
70037;DHT22;57239;51.984;5.748;2023-05-15T02:31:25;22.2;61
70037;DHT22;57239;51.984;5.748;2023-05-15T02:32:53;22.2;60
70037;DHT22;57239;51.984;5.748;2023-05-15T02:33:32;22.2;60
70037;DHT22;57239;51.984;5.748;2023-05-15T02:34:22;22.2;60
70037;DHT22;57239;51.984;5.748;2023-05-15T02:34:54;22.2;61
70037;DHT22;57239;51.984;5.748;2023-05-15T02:35:34;22.2;61
70037;DHT22;57239;51.984;5.748;2023-05-15T02:36:12;22.2;61
70037;DHT22;57239;51.984;5.748;2023-05-15T02:36:48;22.2;61
70037;DHT22;57239;51.984;5.748;2023-05-15T02:37:23;22.2;61
70037;DHT22;57239;51.984;5.748;2023-05-15T02:38:01;22.2;61
70037;DHT22;57239;51.984;5.748;2023-05-15T02:38:38;22.2;61
70037;DHT22;57239;51.984;5.748;2023-05-15T02:39:13;22.2;61
70037;DHT22;57239;51.984;5.748;2023-05-15T02:39:45;22.2;61
70037;DHT22;57239;51.984;5.748;2023-05-15T02:40:16;22.2;61
70037;DHT22;57239;51.984;5.748;2023-05-15T02:40:48;22.2;61
70037;DHT22;57239;51.984;5.748;2023-05-15T02:41:19;unavailable;unavailable
70037;DHT22;57239;51.984;5.748;2023-05-15T02:41:51;22.2;61
70037;DHT22;57239;51.984;5.748;2023-05-15T02:42:22;22.2;61
70037;DHT22;57239;51.984;5.748;2023-05-15T02:42:52;22.2;60
70037;DHT22;57239;51.984;5.748;2023-05-15T02:43:23;22.2;60
70037;DHT22;57239;51.984;5.748;2023-05-15T02:43:55;22.2;60
70037;DHT22;57239;51.984;5.748;2023-05-15T02:44:25;22.2;60
70037;DHT22;57239;51.984;5.748;2023-05-15T02:44:57;22.2;60
70037;DHT22;57239;51.984;5.748;2023-05-15T02:45:27;22.2;60
70037;DHT22;57239;51.984;5.748;2023-05-15T02:45:58;22.2;60
70037;DHT22;57239;51.984;5.748;2023-05-15T02:46:29;22.2;60
70037;DHT22;57239;51.984;5.748;2023-05-15T02:47:00;22.2;60
70037;DHT22;57239;51.984;5.748;2023-05-15T02:47:31;22.2;60
70037;DHT22;57239;51.984;5.748;2023-05-15T02:48:03;22.2;60
70037;DHT22;57239;51.984;5.748;2023-05-15T02:48:34;22.2;60
70037;DHT22;57239;51.984;5.748;2023-05-15T02:49:07;22.2;61
70037;DHT22;57239;51.984;5.748;2023-05-15T02:49:38;22.2;61
70037;DHT22;57239;51.984;5.748;2023-05-15T02:50:09;22.2;61
70037;DHT22;57239;51.984;5.748;2023-05-15T02:50:40;22.2;60
70037;DHT22;57239;51.984;5.748;2023-05-15T02:51:11;22.2;60
70037;DHT22;57239;51.984;5.748;2023-05-15T02:51:41;22.2;60
70037;DHT22;57239;51.984;5.748;2023-05-15T02:52:11;22.2;61
70037;DHT22;57239;51.984;5.748;2023-05-15T02:52:42;22.2;61
70037;DHT22;57239;51.984;5.748;2023-05-15T02:53:12;22.2;61
70037;DHT22;57239;51.984;5.748;2023-05-15T02:53:42;22.2;61
70037;DHT22;57239;51.984;5.748;2023-05-15T02:54:12;22.2;61
70037;DHT22;57239;51.984;5.748;2023-05-15T02:54:44;22.2;61
70037;DHT22;57239;51.984;5.748;2023-05-15T02:55:14;22.2;61
70037;DHT22;57239;51.984;5.748;2023-05-15T02:55:44;22.2;61
70037;DHT22;57239;51.984;5.748;2023-05-15T02:56:14;22.2;60
70037;DHT22;57239;51.984;5.748;2023-05-15T02:56:45;22.2;60
70037;DHT22;57239;51.984;5.748;2023-05-15T02:57:15;22.2;60
70037;DHT22;57239;51.984;5.748;2023-05-15T02:57:48;22.2;60
70037;DHT22;57239;51.984;5.748;2023-05-15T02:58:19;22.2;60
70037;DHT22;57239;51.984;5.748;2023-05-15T02:59:29;22.2;60
70037;DHT22;57239;51.984;5.748;2023-05-15T02:59:59;22.2;60
70037;DHT22;57239;51.984;5.748;2023-05-15T03:01:32;22.2;60
70037;DHT22;57239;51.984;5.748;2023-05-15T03:02:02;22.2;60
70037;DHT22;57239;51.984;5.748;2023-05-15T03:02:32;22.2;60
70037;DHT22;57239;51.984;5.748;2023-05-15T03:03:03;22.2;60
70037;DHT22;57239;51.984;5.748;2023-05-15T03:03:33;22.2;60
70037;DHT22;57239;51.984;5.748;2023-05-15T03:04:03;22.2;60
70037;DHT22;57239;51.984;5.748;2023-05-15T03:04:34;22.2;60
70037;DHT22;57239;51.984;5.748;2023-05-15T03:05:04;22.2;60
70037;DHT22;57239;51.984;5.748;2023-05-15T03:05:35;22.2;60
70037;DHT22;57239;51.984;5.748;2023-05-15T03:06:05;22.2;60
70037;DHT22;57239;51.984;5.748;2023-05-15T03:06:36;unavailable;unavailable
70037;DHT22;57239;51.984;5.748;2023-05-15T03:07:06;22.2;60
70037;DHT22;57239;51.984;5.748;2023-05-15T03:07:36;22.2;60
70037;DHT22;57239;51.984;5.748;2023-05-15T03:08:06;22.2;60
70037;DHT22;57239;51.984;5.748;2023-05-15T03:08:37;22.2;61
70037;DHT22;57239;51.984;5.748;2023-05-15T03:09:07;22.2;61
70037;DHT22;57239;51.984;5.748;2023-05-15T03:09:37;22.2;61
70037;DHT22;57239;51.984;5.748;2023-05-15T03:10:07;22.2;61
70037;DHT22;57239;51.984;5.748;2023-05-15T03:10:38;22.2;61
70037;DHT22;57239;51.984;5.748;2023-05-15T03:11:08;22.2;60
70037;DHT22;57239;51.984;5.748;2023-05-15T03:11:38;22.2;60
70037;DHT22;57239;51.984;5.748;2023-05-15T03:12:09;22.2;60
70037;DHT22;57239;51.984;5.748;2023-05-15T03:12:39;22.2;60
70037;DHT22;57239;51.984;5.748;2023-05-15T03:13:10;22.2;60
70037;DHT22;57239;51.984;5.748;2023-05-15T03:13:40;22.2;60
70037;DHT22;57239;51.984;5.748;2023-05-15T03:14:10;unavailable;unavailable
70037;DHT22;57239;51.984;5.748;2023-05-15T03:14:40;22.2;60
70037;DHT22;57239;51.984;5.748;2023-05-15T03:15:11;22.2;60
70037;DHT22;57239;51.984;5.748;2023-05-15T03:15:42;22.2;60
70037;DHT22;57239;51.984;5.748;2023-05-15T03:16:13;22.2;60
70037;DHT22;57239;51.984;5.748;2023-05-15T03:16:43;22.2;60
70037;DHT22;57239;51.984;5.748;2023-05-15T03:17:13;22.2;60
70037;DHT22;57239;51.984;5.748;2023-05-15T03:17:43;22.2;60
70037;DHT22;57239;51.984;5.748;2023-05-15T03:18:14;22.2;60
70037;DHT22;57239;51.984;5.748;2023-05-15T03:18:44;22.2;61
70037;DHT22;57239;51.984;5.748;2023-05-15T03:19:14;22.2;61
70037;DHT22;57239;51.984;5.748;2023-05-15T03:19:44;22.2;61
70037;DHT22;57239;51.984;5.748;2023-05-15T03:20:15;22.2;61
70037;DHT22;57239;51.984;5.748;2023-05-15T03:20:45;22.2;61
70037;DHT22;57239;51.984;5.748;2023-05-15T03:21:16;22.2;60
70037;DHT22;57239;51.984;5.748;2023-05-15T03:21:47;22.2;60
70037;DHT22;57239;51.984;5.748;2023-05-15T03:22:17;22.2;60
70037;DHT22;57239;51.984;5.748;2023-05-15T03:22:48;22.1;61
70037;DHT22;57239;51.984;5.748;2023-05-15T03:23:18;22.1;61
70037;DHT22;57239;51.984;5.748;2023-05-15T03:23:48;22.1;61
70037;DHT22;57239;51.984;5.748;2023-05-15T03:24:18;22.1;61
70037;DHT22;57239;51.984;5.748;2023-05-15T03:24:49;22.2;61
70037;DHT22;57239;51.984;5.748;2023-05-15T03:25:21;22.1;60
70037;DHT22;57239;51.984;5.748;2023-05-15T03:25:51;22.2;61
70037;DHT22;57239;51.984;5.748;2023-05-15T03:26:21;22.2;61
70037;DHT22;57239;51.984;5.748;2023-05-15T03:26:52;22.2;61
70037;DHT22;57239;51.984;5.748;2023-05-15T03:27:22;22.2;61
70037;DHT22;57239;51.984;5.748;2023-05-15T03:27:52;22.2;70
70037;DHT22;57239;51.984;5.748;2023-05-15T03:28:22;22.2;70
70037;DHT22;57239;51.984;5.748;2023-05-15T03:28:52;22.2;70
70037;DHT22;57239;51.984;5.748;2023-05-15T03:29:24;22.2;70
70037;DHT22;57239;51.984;5.748;2023-05-15T03:29:54;22.2;70
70037;DHT22;57239;51.984;5.748;2023-05-15T03:30:25;22.2;60
70037;DHT22;57239;51.984;5.748;2023-05-15T03:30:55;22.2;60
70037;DHT22;57239;51.984;5.748;2023-05-15T03:31:25;22.2;60
70037;DHT22;57239;51.984;5.748;2023-05-15T03:31:55;22.2;60
70037;DHT22;57239;51.984;5.748;2023-05-15T03:32:26;22.2;60
70037;DHT22;57239;51.984;5.748;2023-05-15T03:32:56;22.2;60
70037;DHT22;57239;51.984;5.748;2023-05-15T03:33:26;22.2;60
70037;DHT22;57239;51.984;5.748;2023-05-15T03:33:56;22.2;60
70037;DHT22;57239;51.984;5.748;2023-05-15T03:34:27;22.2;61
70037;DHT22;57239;51.984;5.748;2023-05-15T03:34:57;22.2;61
70037;DHT22;57239;51.984;5.748;2023-05-15T03:35:27;22.2;61
70037;DHT22;57239;51.984;5.748;2023-05-15T03:35:57;unavailable;unavailable
70037;DHT22;57239;51.984;5.748;2023-05-15T03:36:27;unavailable;unavailable
70037;DHT22;57239;51.984;5.748;2023-05-15T03:36:58;unavailable;unavailable
70037;DHT22;57239;51.984;5.748;2023-05-15T03:37:28;unavailable;unavailable
70037;DHT22;57239;51.984;5.748;2023-05-15T03:37:58;unavailable;unavailable
70037;DHT22;57239;51.984;5.748;2023-05-15T03:38:28;unavailable;unavailable
70037;DHT22;57239;51.984;5.748;2023-05-15T03:38:59;unavailable;unavailable
70037;DHT22;57239;51.984;5.748;2023-05-15T03:39:29;unavailable;unavailable
70037;DHT22;57239;51.984;5.748;2023-05-15T03:39:59;unavailable;unavailable
70037;DHT22;57239;51.984;5.748;2023-05-15T03:40:29;unavailable;unavailable
70037;DHT22;57239;51.984;5.748;2023-05-15T03:41:23;22.2;61
70037;DHT22;57239;51.984;5.748;2023-05-15T03:42:28;22.2;61
70037;DHT22;57239;51.984;5.748;2023-05-15T03:42:59;22.1;61
70037;DHT22;57239;51.984;5.748;2023-05-15T03:43:29;22.1;61
70037;DHT22;57239;51.984;5.748;2023-05-15T03:43:59;22.1;61
70037;DHT22;57239;51.984;5.748;2023-05-15T03:44:32;22.1;61
70037;DHT22;57239;51.984;5.748;2023-05-15T03:45:03;22.1;61
70037;DHT22;57239;51.984;5.748;2023-05-15T03:45:33;22.1;60
70037;DHT22;57239;51.984;5.748;2023-05-15T03:46:03;22.1;60
70037;DHT22;57239;51.984;5.748;2023-05-15T03:47:18;22.1;60
70037;DHT22;57239;51.984;5.748;2023-05-15T03:47:49;22.1;60
70037;DHT22;57239;51.984;5.748;2023-05-15T03:49:44;22.1;60
70037;DHT22;57239;51.984;5.748;2023-05-15T03:50:15;22.1;60
70037;DHT22;57239;51.984;5.748;2023-05-15T03:50:45;22.1;61
70037;DHT22;57239;51.984;5.748;2023-05-15T03:51:15;22.1;61
70037;DHT22;57239;51.984;5.748;2023-05-15T03:52:08;22.1;61
70037;DHT22;57239;51.984;5.748;2023-05-15T03:52:39;22.1;61
70037;DHT22;57239;51.984;5.748;2023-05-15T03:54:33;22.1;60
70037;DHT22;57239;51.984;5.748;2023-05-15T03:55:04;22.1;60
70037;DHT22;57239;51.984;5.748;2023-05-15T03:55:35;22.2;60
70037;DHT22;57239;51.984;5.748;2023-05-15T03:56:05;22.2;60
70037;DHT22;57239;51.984;5.748;2023-05-15T03:56:58;22.2;60
70037;DHT22;57239;51.984;5.748;2023-05-15T03:57:29;22.2;60
70037;DHT22;57239;51.984;5.748;2023-05-15T03:59:06;22.1;60
70037;DHT22;57239;51.984;5.748;2023-05-15T03:59:36;22.1;60
70037;DHT22;57239;51.984;5.748;2023-05-15T04:00:06;22.1;60
70037;DHT22;57239;51.984;5.748;2023-05-15T04:00:37;22.1;60
70037;DHT22;57239;51.984;5.748;2023-05-15T04:01:48;22.1;60
70037;DHT22;57239;51.984;5.748;2023-05-15T04:02:18;22.1;60
70037;DHT22;57239;51.984;5.748;2023-05-15T04:03:26;22.1;60
70037;DHT22;57239;51.984;5.748;2023-05-15T04:03:56;22.1;60
70037;DHT22;57239;51.984;5.748;2023-05-15T04:05:21;22.1;60
70037;DHT22;57239;51.984;5.748;2023-05-15T04:05:51;22.1;60
70037;DHT22;57239;51.984;5.748;2023-05-15T04:06:53;22.1;60
70037;DHT22;57239;51.984;5.748;2023-05-15T04:07:24;22.1;60
70037;DHT22;57239;51.984;5.748;2023-05-15T04:08:44;22.1;61
70037;DHT22;57239;51.984;5.748;2023-05-15T04:09:14;22.1;61
70037;DHT22;57239;51.984;5.748;2023-05-15T04:11:09;22.1;61
70037;DHT22;57239;51.984;5.748;2023-05-15T04:12:17;22.1;60
70037;DHT22;57239;51.984;5.748;2023-05-15T04:12:47;22.1;60
70037;DHT22;57239;51.984;5.748;2023-05-15T04:13:34;22.2;60
70037;DHT22;57239;51.984;5.748;2023-05-15T04:14:04;22.2;60
70037;DHT22;57239;51.984;5.748;2023-05-15T04:15:59;22.4;60
70037;DHT22;57239;51.984;5.748;2023-05-15T04:16:29;22.4;60
70037;DHT22;57239;51.984;5.748;2023-05-15T04:18:24;22.4;60
70037;DHT22;57239;51.984;5.748;2023-05-15T04:18:54;22.2;60
70037;DHT22;57239;51.984;5.748;2023-05-15T04:19:24;22.2;60
70037;DHT22;57239;51.984;5.748;2023-05-15T04:19:55;22.2;60
70037;DHT22;57239;51.984;5.748;2023-05-15T04:20:49;22.2;60
70037;DHT22;57239;51.984;5.748;2023-05-15T04:21:19;22.2;60
70037;DHT22;57239;51.984;5.748;2023-05-15T04:23:14;22.2;60
70037;DHT22;57239;51.984;5.748;2023-05-15T04:23:44;22.2;60
70037;DHT22;57239;51.984;5.748;2023-05-15T04:24:49;22.2;60
70037;DHT22;57239;51.984;5.748;2023-05-15T04:25:19;22.2;60
70037;DHT22;57239;51.984;5.748;2023-05-15T04:25:49;22.2;60
70037;DHT22;57239;51.984;5.748;2023-05-15T04:26:20;22.2;60
70037;DHT22;57239;51.984;5.748;2023-05-15T04:26:50;22.2;60
70037;DHT22;57239;51.984;5.748;2023-05-15T04:27:20;22.2;60
70037;DHT22;57239;51.984;5.748;2023-05-15T04:29:15;22.2;61
70037;DHT22;57239;51.984;5.748;2023-05-15T04:29:45;22.2;60
70037;DHT22;57239;51.984;5.748;2023-05-15T04:30:15;22.2;60
70037;DHT22;57239;51.984;5.748;2023-05-15T04:30:46;22.2;60
70037;DHT22;57239;51.984;5.748;2023-05-15T04:31:50;22.2;60
70037;DHT22;57239;51.984;5.748;2023-05-15T04:32:20;22.2;60
70037;DHT22;57239;51.984;5.748;2023-05-15T04:33:57;22.2;60
70037;DHT22;57239;51.984;5.748;2023-05-15T04:34:27;22.2;60